Aérodrome :
LOGIN :

S'inscrire | Disclaimer

   EN    FR    IT 

 










Légende :    VFR   VFR Marginal   IFR   IFR Intensif   IFR Très Intensif
Visi : 
Plafond : 
>= 8 km
>= 3000ft
5 à 8 km
1000 à 3000 ft
1500m à 5 km
500 à 1000 ft
800 à 1500m
200 à 500 ft
< 800m
< 200 ft
Symboles :   Orages  Brouillard  Fortes neiges  Fortes précipitations  Vent > 20 kt
SIGMETs :   Divers  Orages  Givrage  Turbulence  Onde Orograph.  Cendres Volcan.






- Altitude de l'aérodrome : 376 ft


LHKE - Kecskemét

DERNIER METAR :
  • 152115Z 00000KT 3000 BR MIPRFG NSC 11/10 Q1014 NOSIG RMK YLO

METARs EXPIRÉS :
  • 152045Z 00000KT 4000 BR MIPRFG NSC 12/11 Q1014 BECMG 3000 BR MIPRFG RMK GRN
  • 152015Z 00000KT 5000 BR MI PRFG NSC 12/11 Q1014 BECMG 5000 BR MIPRFG RMK WHT
  • 151945Z 00000KT 6000 NSC 13/11 Q1014 BECMG 5000 BR MIPRFG RMK WHT
  • 151915Z 00000KT 8000 NSC 13/11 Q1014 BECMG 5000 BR MIPRFG RMK BLU
  • 151845Z 00000KT 8000 NSC 14/13 Q1014 NOSIG RMK BLU

TAF TAF LHKE
Valide du 15 à 21h jusqu'au 16 à 06h UTC


152015Z 1521/1606 VRB03KT 6000 NSC
BECMG 1521/1523 3000 BR MIBCFG
TEMPO 1522/1606 1500 BR MIFG
PROB30
TEMPO 1601/1606 0350 FG



MET'MAP, la Météo Aéronautique d'un coup d'oeil ! - Copyright ORBIFLY Décembre 2007 - Disclaimer

ORBIFLY MET'MAP TEAM :

Programmation & Développement : Alexandra Zaïnal
Conception & Développement : Baudouin d'Aumeries
Co-Programmation & Développement : Marc-Olivier Méhu
Soutien technique & logistique : Manuel Goepfert

Contact : metmap@orbifly.com




SOURCES & CREDITS :

   NOAA